createdAt,value
2024-03-28T00:01:12.343Z,10.41
2024-03-28T00:03:43.630Z,10.39
2024-03-28T00:06:15.105Z,10.35
2024-03-28T00:08:46.425Z,10.32
2024-03-28T00:11:17.740Z,10.29
2024-03-28T00:13:49.010Z,10.26
2024-03-28T00:16:20.295Z,10.23
2024-03-28T00:18:51.547Z,10.22
2024-03-28T00:21:22.836Z,10.21
2024-03-28T00:23:54.072Z,10.20
2024-03-28T00:26:25.328Z,10.19
2024-03-28T00:28:56.788Z,10.17
2024-03-28T00:31:28.347Z,10.16
2024-03-28T00:33:59.606Z,10.13
2024-03-28T00:36:31.224Z,10.11
2024-03-28T00:39:03.709Z,10.06
2024-03-28T00:41:35.053Z,10.09
2024-03-28T00:44:06.518Z,10.08
2024-03-28T00:46:37.833Z,10.07
2024-03-28T00:49:09.059Z,10.01
2024-03-28T00:51:40.306Z,10.03
2024-03-28T00:54:11.548Z,10.02
2024-03-28T00:56:42.826Z,10.00
2024-03-28T00:59:14.026Z,9.98
2024-03-28T01:01:45.298Z,9.96
2024-03-28T01:04:16.680Z,9.94
2024-03-28T01:06:48.355Z,9.94
2024-03-28T01:09:19.660Z,9.92
2024-03-28T01:11:51.111Z,9.90
2024-03-28T01:14:22.649Z,9.89
2024-03-28T01:16:55.185Z,9.87
2024-03-28T01:19:26.442Z,9.84
2024-03-28T01:21:57.811Z,9.82
2024-03-28T01:24:29.161Z,9.80
2024-03-28T01:27:00.475Z,9.78
2024-03-28T01:29:31.778Z,9.77
2024-03-28T01:32:03.061Z,9.77
2024-03-28T01:34:34.431Z,9.77
2024-03-28T01:37:05.648Z,9.76
2024-03-28T01:39:38.012Z,9.76
2024-03-28T01:42:09.841Z,9.75
2024-03-28T01:44:41.128Z,9.74
2024-03-28T01:47:35.272Z,9.74
2024-03-28T01:50:04.322Z,9.70
2024-03-28T01:52:35.775Z,9.72
2024-03-28T01:55:08.337Z,9.71
2024-03-28T01:57:39.675Z,9.70
2024-03-28T02:00:13.651Z,9.71
2024-03-28T02:02:44.824Z,9.71
2024-03-28T02:05:16.735Z,9.70
2024-03-28T02:07:47.959Z,9.71
2024-03-28T02:10:19.520Z,9.68
2024-03-28T02:12:52.184Z,9.71
2024-03-28T02:15:23.512Z,9.72
2024-03-28T02:17:55.000Z,9.74
2024-03-28T02:20:26.323Z,9.74
2024-03-28T02:22:57.737Z,9.75
2024-03-28T02:25:29.418Z,9.74
2024-03-28T02:28:00.862Z,9.73
2024-03-28T02:30:33.634Z,9.73
2024-03-28T02:33:04.939Z,9.74
2024-03-28T02:35:36.337Z,9.74
2024-03-28T02:38:07.851Z,9.74
2024-03-28T02:40:39.179Z,9.74
2024-03-28T02:43:10.589Z,9.75
2024-03-28T02:45:41.894Z,9.75
2024-03-28T02:48:13.319Z,9.76
2024-03-28T02:50:44.920Z,9.79
2024-03-28T02:53:16.268Z,9.81
2024-03-28T02:55:53.141Z,9.83
2024-03-28T02:58:24.546Z,9.84
2024-03-28T03:00:55.831Z,9.85
2024-03-28T03:03:27.220Z,9.84
2024-03-28T03:05:58.814Z,9.84
2024-03-28T03:08:30.092Z,9.83
2024-03-28T03:11:01.412Z,9.82
2024-03-28T03:13:32.857Z,9.82
2024-03-28T03:16:04.934Z,9.81
2024-03-28T03:18:36.264Z,9.80
2024-03-28T03:21:09.876Z,9.79
2024-03-28T03:23:49.509Z,9.78
2024-03-28T03:26:23.813Z,9.76
2024-03-28T03:29:15.223Z,9.75
2024-03-28T03:32:04.287Z,9.73
2024-03-28T03:34:38.562Z,9.70
2024-03-28T03:37:14.778Z,9.71
2024-03-28T03:39:46.108Z,9.71
2024-03-28T03:42:17.357Z,9.71
2024-03-28T03:44:48.823Z,9.72
2024-03-28T03:47:20.058Z,9.74
2024-03-28T03:49:51.329Z,9.77
2024-03-28T03:52:22.743Z,9.82
2024-03-28T03:54:54.501Z,9.87
2024-03-28T03:57:25.883Z,9.90
2024-03-28T03:59:57.309Z,9.94
2024-03-28T04:02:28.680Z,9.98
2024-03-28T04:04:59.923Z,10.01
2024-03-28T04:07:31.179Z,10.01
2024-03-28T04:10:02.459Z,10.02
2024-03-28T04:12:33.824Z,10.02
2024-03-28T04:15:05.335Z,10.01
2024-03-28T04:17:38.611Z,9.99
2024-03-28T04:20:12.366Z,9.99
2024-03-28T04:22:43.647Z,9.97
2024-03-28T04:25:15.116Z,9.94
2024-03-28T04:27:46.414Z,9.96
2024-03-28T04:30:17.961Z,9.96
2024-03-28T04:32:49.216Z,9.95
2024-03-28T04:35:20.544Z,9.94
2024-03-28T04:37:52.117Z,9.95
2024-03-28T04:40:23.569Z,9.95
2024-03-28T04:42:54.994Z,9.97
2024-03-28T04:45:26.356Z,9.99
2024-03-28T04:47:58.638Z,10.02
2024-03-28T04:50:29.973Z,10.04
2024-03-28T04:53:01.215Z,10.06
2024-03-28T04:55:32.478Z,10.09
2024-03-28T04:58:04.087Z,10.14
2024-03-28T05:00:36.128Z,10.17
2024-03-28T05:03:07.743Z,10.20
2024-03-28T05:05:39.620Z,10.24
2024-03-28T05:08:11.030Z,10.30
2024-03-28T05:10:42.246Z,10.36
2024-03-28T05:13:13.741Z,10.44
2024-03-28T05:15:45.109Z,10.52
2024-03-28T05:18:16.307Z,10.61
2024-03-28T05:20:48.712Z,10.68
2024-03-28T05:23:20.073Z,10.75
2024-03-28T05:25:51.372Z,10.79
2024-03-28T05:28:22.624Z,10.92
2024-03-28T05:30:53.988Z,11.01
2024-03-28T05:33:25.278Z,11.11
2024-03-28T05:35:56.848Z,11.27
2024-03-28T05:38:28.416Z,11.36
2024-03-28T05:41:00.526Z,11.45
2024-03-28T05:43:31.861Z,11.54
2024-03-28T05:46:03.279Z,11.62
2024-03-28T05:48:34.671Z,11.71
2024-03-28T05:51:06.543Z,11.82
2024-03-28T05:53:37.980Z,11.91
2024-03-28T05:56:09.576Z,11.98
2024-03-28T05:58:40.813Z,12.05
2024-03-28T06:01:12.104Z,12.10
2024-03-28T06:03:43.412Z,12.16
2024-03-28T06:06:14.905Z,12.21
2024-03-28T06:08:46.131Z,12.25
2024-03-28T06:11:17.352Z,12.33
2024-03-28T06:13:48.709Z,12.38
2024-03-28T06:16:22.830Z,12.43
2024-03-28T06:18:52.721Z,12.54
2024-03-28T06:21:23.987Z,12.63
2024-03-28T06:23:55.277Z,12.74
2024-03-28T06:26:26.626Z,12.89
2024-03-28T06:28:57.806Z,13.05
2024-03-28T06:31:29.073Z,13.18
2024-03-28T06:34:00.362Z,13.42
2024-03-28T06:36:31.684Z,13.60
2024-03-28T06:39:03.817Z,13.78
2024-03-28T06:41:35.090Z,13.98
2024-03-28T06:44:06.540Z,14.11
2024-03-28T06:46:37.932Z,14.14
2024-03-28T06:49:09.218Z,14.12
2024-03-28T06:51:40.461Z,14.12
2024-03-28T06:54:11.710Z,14.15
2024-03-28T06:56:42.946Z,14.16
2024-03-28T06:59:14.565Z,14.15
2024-03-28T07:01:45.836Z,14.17
2024-03-28T07:04:17.094Z,14.18
2024-03-28T07:06:48.583Z,14.25
2024-03-28T07:09:19.876Z,14.27
2024-03-28T07:11:51.450Z,14.28
2024-03-28T07:14:22.709Z,14.30
2024-03-28T07:16:54.019Z,14.34
2024-03-28T07:19:25.704Z,14.37
2024-03-28T07:21:57.092Z,14.40
2024-03-28T07:24:28.473Z,14.45
2024-03-28T07:26:59.765Z,14.46
2024-03-28T07:29:31.172Z,14.47
2024-03-28T07:32:02.479Z,14.48
2024-03-28T07:34:33.688Z,14.49
2024-03-28T07:37:05.145Z,14.52
2024-03-28T07:39:36.336Z,14.54
2024-03-28T07:42:08.391Z,14.56
2024-03-28T07:44:39.832Z,14.58
2024-03-28T07:47:11.155Z,14.60
2024-03-28T07:49:42.394Z,14.63
2024-03-28T07:52:13.641Z,14.67
2024-03-28T07:54:47.321Z,14.71
2024-03-28T07:57:18.506Z,14.77
2024-03-28T07:59:49.733Z,14.81
2024-03-28T08:02:21.337Z,14.87
2024-03-28T08:04:53.244Z,14.95
2024-03-28T08:07:25.537Z,15.03
2024-03-28T08:09:56.686Z,15.10
2024-03-28T08:12:28.105Z,15.20
2024-03-28T08:15:00.320Z,15.27
2024-03-28T08:17:32.011Z,15.32
2024-03-28T08:20:14.746Z,15.39
2024-03-28T08:22:45.993Z,15.49
2024-03-28T08:25:17.472Z,15.65
2024-03-28T08:27:48.725Z,15.81
2024-03-28T08:30:20.350Z,15.93
2024-03-28T08:32:51.820Z,16.03
2024-03-28T08:35:23.451Z,16.19
2024-03-28T08:37:55.136Z,16.28
2024-03-28T08:40:26.333Z,16.38
2024-03-28T08:42:59.761Z,16.53
2024-03-28T08:45:33.490Z,16.70
2024-03-28T08:48:06.148Z,16.81
2024-03-28T08:50:38.151Z,16.85
2024-03-28T08:53:09.337Z,16.85
2024-03-28T08:55:40.500Z,16.86
2024-03-28T08:58:12.206Z,16.84
2024-03-28T09:00:43.391Z,16.78
2024-03-28T09:03:15.058Z,16.73
2024-03-28T09:05:46.344Z,16.67
2024-03-28T09:08:17.751Z,16.69
2024-03-28T09:10:56.092Z,16.78
2024-03-28T09:13:27.454Z,16.86
2024-03-28T09:15:58.742Z,16.96
2024-03-28T09:18:30.031Z,17.02
2024-03-28T09:21:01.579Z,17.09
2024-03-28T09:23:33.768Z,17.15
2024-03-28T09:26:05.403Z,17.30
2024-03-28T09:28:36.652Z,17.55
2024-03-28T09:31:09.097Z,17.82
2024-03-28T09:33:40.368Z,17.98
2024-03-28T09:36:13.932Z,18.18
2024-03-28T09:38:45.506Z,18.32
2024-03-28T09:41:22.577Z,18.49
2024-03-28T09:43:54.373Z,18.56
2024-03-28T09:46:25.687Z,18.51
2024-03-28T09:49:00.839Z,18.44
2024-03-28T09:51:32.309Z,18.41
2024-03-28T09:54:06.495Z,18.40
2024-03-28T09:56:38.770Z,18.41
2024-03-28T09:59:10.022Z,18.46
2024-03-28T10:01:41.800Z,18.60
2024-03-28T10:04:18.580Z,18.74
2024-03-28T10:06:54.074Z,18.74
2024-03-28T10:09:25.550Z,18.71
2024-03-28T10:11:56.866Z,18.66
2024-03-28T10:14:33.776Z,18.65
2024-03-28T10:17:05.296Z,18.68
2024-03-28T10:19:40.557Z,18.73
2024-03-28T10:22:15.671Z,18.83
2024-03-28T10:24:50.250Z,18.96
2024-03-28T10:27:24.104Z,19.07
2024-03-28T10:29:57.177Z,19.20
2024-03-28T10:32:28.526Z,19.34
2024-03-28T10:35:00.225Z,19.44
2024-03-28T10:37:36.811Z,19.50
2024-03-28T10:40:17.561Z,19.53
2024-03-28T10:42:50.722Z,19.56
2024-03-28T10:45:24.464Z,19.59
2024-03-28T10:47:56.331Z,19.64
2024-03-28T10:50:34.759Z,19.77
2024-03-28T10:53:10.072Z,19.96
2024-03-28T10:55:42.757Z,20.07
2024-03-28T10:58:14.291Z,20.13
2024-03-28T11:00:45.578Z,20.17
2024-03-28T11:03:18.300Z,20.19
2024-03-28T11:05:50.047Z,20.18
2024-03-28T11:08:22.027Z,20.18
2024-03-28T11:10:53.700Z,20.15
2024-03-28T11:13:26.557Z,20.09
2024-03-28T11:16:06.153Z,20.01
2024-03-28T11:18:37.454Z,19.95
2024-03-28T11:21:09.578Z,19.86
2024-03-28T11:23:48.642Z,19.76
2024-03-28T11:26:23.423Z,19.65
2024-03-28T11:29:03.790Z,19.52
2024-03-28T11:31:38.518Z,19.36
2024-03-28T11:34:12.502Z,19.16
2024-03-28T11:36:43.684Z,18.99
2024-03-28T11:39:14.958Z,18.81
2024-03-28T11:41:46.207Z,18.65
2024-03-28T11:44:21.953Z,18.53
2024-03-28T11:47:02.210Z,18.44
2024-03-28T11:49:35.281Z,18.39
2024-03-28T11:52:09.931Z,18.34
2024-03-28T11:54:41.147Z,18.26
2024-03-28T11:57:12.628Z,18.18
2024-03-28T11:59:43.842Z,18.09
2024-03-28T12:02:15.038Z,18.05
2024-03-28T12:04:46.212Z,18.01
2024-03-28T12:07:17.424Z,18.04
2024-03-28T12:09:49.169Z,18.07
2024-03-28T12:12:20.325Z,18.12
2024-03-28T12:14:53.159Z,18.18
2024-03-28T12:17:29.108Z,18.22
2024-03-28T12:20:13.274Z,18.28
2024-03-28T12:22:46.553Z,18.19
2024-03-28T12:25:17.946Z,18.12
2024-03-28T12:27:58.321Z,18.02
2024-03-28T12:30:30.996Z,17.90
2024-03-28T12:33:06.300Z,17.79
2024-03-28T12:35:38.490Z,17.72
2024-03-28T12:38:13.969Z,17.69
2024-03-28T12:40:48.977Z,17.67
2024-03-28T12:43:23.206Z,17.63
2024-03-28T12:46:05.184Z,17.59
2024-03-28T12:48:36.361Z,17.51
2024-03-28T12:51:07.810Z,17.49
2024-03-28T12:53:39.434Z,17.42
2024-03-28T12:56:10.815Z,17.35
2024-03-28T12:58:43.041Z,17.26
2024-03-28T13:01:14.330Z,17.15
2024-03-28T13:03:45.606Z,17.03
2024-03-28T13:06:16.849Z,16.94
2024-03-28T13:08:48.096Z,16.89
2024-03-28T13:11:19.343Z,16.86
2024-03-28T13:13:50.757Z,16.82
2024-03-28T13:16:25.134Z,16.77
2024-03-28T13:18:56.379Z,16.75
2024-03-28T13:21:31.184Z,16.68
2024-03-28T13:24:02.589Z,16.67
2024-03-28T13:29:13.076Z,16.66
2024-03-28T13:31:44.846Z,16.66
2024-03-28T13:34:16.118Z,16.66
2024-03-28T13:36:47.765Z,16.65
2024-03-28T13:39:19.063Z,16.65
2024-03-28T13:41:50.278Z,16.64
2024-03-28T13:44:22.445Z,16.63
2024-03-28T13:46:54.652Z,16.60
2024-03-28T13:49:27.276Z,16.56
2024-03-28T13:52:00.819Z,16.51
2024-03-28T13:54:34.578Z,16.48
2024-03-28T13:57:06.192Z,16.42
2024-03-28T13:59:38.151Z,16.33
2024-03-28T14:02:09.534Z,16.25
2024-03-28T14:04:40.811Z,16.17
2024-03-28T14:07:11.965Z,16.08
2024-03-28T14:09:43.435Z,16.00
2024-03-28T14:12:14.634Z,15.94
2024-03-28T14:14:45.777Z,15.88
2024-03-28T14:17:16.963Z,15.83
2024-03-28T14:19:51.585Z,15.81
2024-03-28T14:22:22.765Z,15.80
2024-03-28T14:24:55.814Z,15.80
2024-03-28T14:27:27.072Z,15.79
2024-03-28T14:29:59.912Z,15.78
2024-03-28T14:32:31.396Z,15.75
2024-03-28T14:35:02.626Z,15.73
2024-03-28T14:37:33.761Z,15.69
2024-03-28T14:40:07.148Z,15.68
2024-03-28T14:42:38.350Z,15.69
2024-03-28T14:45:11.081Z,15.69
2024-03-28T14:47:42.304Z,15.68
2024-03-28T14:50:13.828Z,15.62
2024-03-28T14:52:45.081Z,15.58
2024-03-28T14:55:16.732Z,15.54
2024-03-28T14:57:47.912Z,15.49
2024-03-28T15:00:20.334Z,15.46
2024-03-28T15:02:51.503Z,15.39
2024-03-28T15:05:22.715Z,15.36
2024-03-28T15:07:54.377Z,15.30
2024-03-28T15:10:25.709Z,15.21
2024-03-28T15:12:56.906Z,15.12
2024-03-28T15:15:28.226Z,15.03
2024-03-28T15:17:59.439Z,14.95
2024-03-28T15:20:35.213Z,14.85
2024-03-28T15:23:06.938Z,14.73
2024-03-28T15:25:38.673Z,14.60
2024-03-28T15:28:10.130Z,14.48
2024-03-28T15:30:42.300Z,14.40
2024-03-28T15:33:13.857Z,14.32
2024-03-28T15:35:45.134Z,14.24
2024-03-28T15:38:16.352Z,14.17
2024-03-28T15:40:47.625Z,14.11
2024-03-28T15:43:18.797Z,14.10
2024-03-28T15:45:50.703Z,14.09
2024-03-28T15:48:21.903Z,14.09
2024-03-28T15:50:53.140Z,14.09
2024-03-28T15:53:24.895Z,14.06
2024-03-28T15:55:59.715Z,14.05
2024-03-28T15:58:31.791Z,14.07
2024-03-28T16:01:03.088Z,14.07
2024-03-28T16:03:34.365Z,14.04
2024-03-28T16:06:16.622Z,14.00
2024-03-28T16:08:48.393Z,13.94
2024-03-28T16:11:19.612Z,13.89
2024-03-28T16:13:50.959Z,13.85
2024-03-28T16:16:22.190Z,13.82
2024-03-28T16:18:53.451Z,13.77
2024-03-28T16:21:24.777Z,13.71
2024-03-28T16:23:56.119Z,13.68
2024-03-28T16:26:27.433Z,13.66
2024-03-28T16:29:06.754Z,13.65
2024-03-28T16:31:43.260Z,13.65
2024-03-28T16:34:14.769Z,13.65
2024-03-28T16:36:48.213Z,13.66
2024-03-28T16:39:19.446Z,13.66
2024-03-28T16:41:50.854Z,13.66
2024-03-28T16:44:24.370Z,13.66
2024-03-28T16:46:55.590Z,13.63
2024-03-28T16:49:26.774Z,13.53
2024-03-28T16:51:59.823Z,13.55
2024-03-28T16:54:31.216Z,13.50
2024-03-28T16:57:02.654Z,13.43
2024-03-28T16:59:33.817Z,13.36
2024-03-28T17:02:05.324Z,13.37
2024-03-28T17:04:37.114Z,13.35
